createdAt,value
2017-06-19T00:01:04.878Z,9.60
2017-06-19T00:03:34.332Z,7.87
2017-06-19T00:06:02.547Z,10.02
2017-06-19T00:08:35.076Z,10.77
2017-06-19T00:11:04.198Z,8.60
2017-06-19T00:13:35.717Z,8.13
2017-06-19T00:16:03.725Z,8.40
2017-06-19T00:18:31.581Z,7.43
2017-06-19T00:21:05.728Z,8.18
2017-06-19T00:23:40.134Z,9.35
2017-06-19T00:26:08.847Z,8.77
2017-06-19T00:28:37.737Z,8.30
2017-06-19T00:31:10.677Z,8.75
2017-06-19T00:33:38.575Z,9.52
2017-06-19T00:36:06.506Z,8.82
2017-06-19T00:38:36.173Z,9.13
2017-06-19T00:41:06.460Z,11.63
2017-06-19T00:43:38.151Z,9.30
2017-06-19T00:46:08.010Z,9.10
2017-06-19T00:48:38.459Z,11.90
2017-06-19T00:51:07.170Z,11.27
2017-06-19T00:53:37.269Z,12.37
2017-06-19T00:56:07.211Z,11.90
2017-06-19T00:58:36.820Z,9.95
2017-06-19T01:01:06.166Z,10.50
2017-06-19T01:03:34.304Z,11.82
2017-06-19T01:06:02.743Z,12.15
2017-06-19T01:08:32.164Z,11.00
2017-06-19T01:11:01.471Z,15.02
2017-06-19T01:13:29.812Z,12.43
2017-06-19T01:15:57.666Z,11.43
2017-06-19T01:18:26.748Z,12.20
2017-06-19T01:20:57.289Z,11.98
2017-06-19T01:23:25.753Z,15.82
2017-06-19T01:25:55.568Z,13.13
2017-06-19T01:28:24.316Z,12.37
2017-06-19T01:30:54.563Z,11.55
2017-06-19T01:33:23.067Z,13.43
2017-06-19T01:35:53.757Z,12.85
2017-06-19T01:38:23.886Z,14.40
2017-06-19T01:40:53.531Z,13.50
2017-06-19T01:43:22.711Z,12.88
2017-06-19T01:45:51.993Z,13.15
2017-06-19T01:48:22.157Z,13.90
2017-06-19T01:50:53.751Z,15.07
2017-06-19T01:53:21.655Z,15.18
2017-06-19T01:55:55.814Z,15.45
2017-06-19T01:58:25.935Z,14.80
2017-06-19T02:00:54.577Z,15.00
2017-06-19T02:03:22.808Z,16.15
2017-06-19T02:05:52.734Z,16.23
2017-06-19T02:08:21.336Z,15.75
2017-06-19T02:10:52.405Z,16.48
2017-06-19T02:13:21.444Z,18.15
2017-06-19T02:15:49.869Z,16.80
2017-06-19T02:18:18.859Z,17.35
2017-06-19T02:20:47.211Z,16.12
2017-06-19T02:23:16.654Z,18.58
2017-06-19T02:25:47.667Z,17.58
2017-06-19T02:28:18.046Z,18.52
2017-06-19T02:30:48.583Z,16.77
2017-06-19T02:33:18.068Z,16.30
2017-06-19T02:35:45.991Z,18.62
2017-06-19T02:38:14.931Z,17.60
2017-06-19T02:40:44.682Z,17.52
2017-06-19T02:43:13.290Z,16.05
2017-06-19T02:45:43.209Z,16.50
2017-06-19T02:48:11.300Z,15.52
2017-06-19T02:50:40.389Z,14.13
2017-06-19T02:53:10.815Z,15.25
2017-06-19T02:55:39.805Z,15.23
2017-06-19T02:58:09.409Z,14.40
2017-06-19T03:00:37.539Z,16.60
2017-06-19T03:03:06.417Z,15.15
2017-06-19T03:05:34.266Z,16.40
2017-06-19T03:08:02.502Z,15.20
2017-06-19T03:10:37.682Z,13.95
2017-06-19T03:13:06.896Z,13.57
2017-06-19T03:15:37.650Z,14.10
2017-06-19T03:18:07.346Z,13.68
2017-06-19T03:20:35.298Z,14.70
2017-06-19T03:23:03.814Z,11.40
2017-06-19T03:25:31.593Z,8.57
2017-06-19T03:28:01.114Z,8.07
2017-06-19T03:30:29.174Z,7.32
2017-06-19T03:32:56.972Z,6.55
2017-06-19T03:35:24.793Z,6.75
2017-06-19T03:37:53.325Z,6.00
2017-06-19T03:40:21.194Z,6.80
2017-06-19T03:42:50.063Z,5.43
2017-06-19T03:45:17.939Z,6.75
2017-06-19T03:47:48.598Z,8.13
2017-06-19T03:50:17.278Z,6.80
2017-06-19T03:52:49.155Z,7.35
2017-06-19T03:55:21.110Z,10.20
2017-06-19T03:57:52.366Z,6.50
2017-06-19T04:00:27.576Z,5.30
2017-06-19T04:02:56.645Z,5.80
2017-06-19T04:05:25.798Z,6.15
2017-06-19T04:07:55.660Z,6.93
2017-06-19T04:10:37.066Z,6.00
2017-06-19T04:13:10.111Z,6.62
2017-06-19T04:15:37.897Z,7.15
2017-06-19T04:18:05.635Z,5.53
2017-06-19T04:20:33.808Z,6.18
2017-06-19T04:23:04.729Z,5.85
2017-06-19T04:25:32.987Z,5.72
2017-06-19T04:28:03.753Z,7.28
2017-06-19T04:30:31.525Z,6.07
2017-06-19T04:32:59.279Z,8.77
2017-06-19T04:35:27.064Z,8.55
2017-06-19T04:37:55.771Z,7.32
2017-06-19T04:40:23.555Z,11.27
2017-06-19T04:42:51.338Z,7.10
2017-06-19T04:45:19.097Z,8.63
2017-06-19T04:47:46.877Z,6.63
2017-06-19T04:50:14.646Z,5.75
2017-06-19T04:52:44.463Z,5.65
2017-06-19T04:55:14.881Z,5.70
2017-06-19T04:57:42.706Z,7.60
2017-06-19T05:00:16.320Z,6.78
2017-06-19T05:02:44.131Z,5.87
2017-06-19T05:05:11.990Z,6.45
2017-06-19T05:07:40.627Z,5.95
2017-06-19T05:10:09.873Z,5.97
2017-06-19T05:12:45.641Z,5.85
2017-06-19T05:15:15.264Z,5.97
2017-06-19T05:17:45.937Z,5.75
2017-06-19T05:20:16.985Z,5.75
2017-06-19T05:22:46.616Z,7.60
2017-06-19T05:25:16.824Z,5.30
2017-06-19T05:27:44.609Z,7.27
2017-06-19T05:30:18.042Z,6.20
2017-06-19T05:32:45.819Z,7.80
2017-06-19T05:35:14.370Z,6.90
2017-06-19T05:37:42.127Z,6.07
2017-06-19T05:40:09.873Z,9.83
2017-06-19T05:42:37.671Z,7.27
2017-06-19T05:45:05.433Z,6.73
2017-06-19T05:47:33.221Z,5.37
2017-06-19T05:50:00.967Z,5.83
2017-06-19T05:52:28.720Z,6.50
2017-06-19T05:54:56.494Z,7.90
2017-06-19T05:57:24.244Z,6.23
2017-06-19T05:59:52.022Z,5.70
2017-06-19T06:02:19.761Z,12.70
2017-06-19T06:04:47.497Z,6.70
2017-06-19T06:07:15.265Z,9.53
2017-06-19T06:09:43.013Z,9.00
2017-06-19T06:12:10.783Z,6.63
2017-06-19T06:14:38.515Z,10.37
2017-06-19T06:17:06.258Z,10.50
2017-06-19T06:19:34.022Z,6.40
2017-06-19T06:22:01.761Z,7.10
2017-06-19T06:24:29.551Z,5.80
2017-06-19T06:26:57.290Z,8.40
2017-06-19T06:29:25.037Z,9.17
2017-06-19T06:31:52.802Z,4.97
2017-06-19T06:34:20.586Z,6.10
2017-06-19T06:36:49.134Z,6.00
2017-06-19T06:39:16.877Z,5.40
2017-06-19T06:41:44.617Z,6.40
2017-06-19T06:44:12.393Z,5.27
2017-06-19T06:46:40.126Z,8.17
2017-06-19T06:49:07.901Z,5.50
2017-06-19T06:51:35.640Z,5.23
2017-06-19T06:54:04.136Z,5.37
2017-06-19T06:56:31.896Z,6.33
2017-06-19T06:58:59.623Z,4.77
2017-06-19T07:01:27.395Z,5.10
2017-06-19T07:03:55.891Z,5.37
2017-06-19T07:06:23.628Z,5.77
2017-06-19T07:08:52.166Z,10.83
2017-06-19T07:11:19.898Z,9.17
2017-06-19T07:13:47.690Z,5.20
2017-06-19T07:16:15.424Z,5.13
2017-06-19T07:18:43.163Z,5.20
2017-06-19T07:21:11.687Z,5.00
2017-06-19T07:23:39.426Z,5.70
2017-06-19T07:26:07.204Z,5.97
2017-06-19T07:28:34.945Z,4.87
2017-06-19T07:31:02.679Z,5.77
2017-06-19T07:33:31.217Z,6.30
2017-06-19T07:35:59.068Z,4.30
2017-06-19T07:38:26.849Z,6.97
2017-06-19T07:40:54.593Z,4.20
2017-06-19T07:43:22.327Z,4.93
2017-06-19T07:45:50.104Z,6.90
2017-06-19T07:48:17.848Z,4.53
2017-06-19T07:50:45.634Z,4.77
2017-06-19T07:53:14.924Z,5.30
2017-06-19T07:55:42.664Z,3.63
2017-06-19T07:58:10.452Z,3.60
2017-06-19T08:00:38.207Z,3.87
2017-06-19T08:03:06.304Z,3.27
2017-06-19T08:05:34.063Z,3.93
2017-06-19T08:08:01.857Z,4.73
2017-06-19T08:10:29.654Z,4.87
2017-06-19T08:12:57.405Z,3.20
2017-06-19T08:15:25.184Z,3.50
2017-06-19T08:17:53.256Z,3.53
2017-06-19T08:20:21.021Z,4.13
2017-06-19T08:22:48.804Z,3.00
2017-06-19T08:25:16.548Z,2.93
2017-06-19T08:27:44.320Z,4.20
2017-06-19T08:30:12.061Z,4.73
2017-06-19T08:32:39.800Z,4.07
2017-06-19T08:35:07.564Z,3.23
2017-06-19T08:37:35.328Z,3.60
2017-06-19T08:40:03.125Z,3.50
2017-06-19T08:42:31.192Z,3.07
2017-06-19T08:44:58.944Z,4.33
2017-06-19T08:47:26.716Z,3.33
2017-06-19T08:49:54.448Z,3.63
2017-06-19T08:52:22.222Z,3.20
2017-06-19T08:54:49.953Z,2.97
2017-06-19T08:57:17.694Z,4.23
2017-06-19T08:59:46.224Z,3.20
2017-06-19T09:02:13.961Z,2.60
2017-06-19T09:04:41.732Z,3.57
2017-06-19T09:07:09.463Z,3.60
2017-06-19T09:09:38.155Z,3.43
2017-06-19T09:12:06.773Z,4.50
2017-06-19T09:14:34.869Z,3.90
2017-06-19T09:17:03.524Z,4.37
2017-06-19T09:19:31.805Z,5.00
2017-06-19T09:22:00.196Z,4.00
2017-06-19T09:24:28.253Z,3.97
2017-06-19T09:26:56.012Z,6.43
2017-06-19T09:29:25.225Z,5.93
2017-06-19T09:31:53.749Z,3.57
2017-06-19T09:34:23.377Z,4.03
2017-06-19T09:36:52.606Z,3.63
2017-06-19T09:39:24.460Z,3.90
2017-06-19T09:47:49.292Z,4.20
2017-06-19T09:58:16.243Z,3.70
2017-06-19T10:03:24.746Z,3.42
2017-06-19T10:06:01.259Z,3.95
2017-06-19T10:08:35.987Z,2.80
2017-06-19T10:11:11.381Z,3.53
2017-06-19T10:13:44.732Z,3.58
2017-06-19T10:16:15.401Z,5.00
2017-06-19T10:18:45.458Z,3.53
2017-06-19T10:21:15.996Z,3.37
2017-06-19T10:23:46.195Z,4.20
2017-06-19T10:26:17.427Z,4.40
2017-06-19T10:28:49.786Z,4.37
2017-06-19T10:31:20.183Z,4.72
2017-06-19T10:33:51.098Z,3.90
2017-06-19T10:36:24.186Z,4.78
2017-06-19T10:38:55.954Z,4.97
2017-06-19T10:41:27.372Z,2.90
2017-06-19T10:43:56.674Z,3.08
2017-06-19T10:46:29.457Z,3.28
2017-06-19T10:49:02.133Z,4.68
2017-06-19T10:51:31.682Z,3.00
2017-06-19T10:54:02.120Z,2.85
2017-06-19T10:59:03.185Z,4.05
2017-06-19T11:01:33.711Z,4.32
2017-06-19T11:04:03.253Z,4.00
2017-06-19T11:06:33.236Z,4.47
2017-06-19T11:09:03.060Z,3.00
2017-06-19T11:11:35.038Z,2.87
2017-06-19T11:14:05.563Z,2.60
2017-06-19T11:19:09.795Z,2.40
2017-06-19T11:21:39.040Z,2.78
2017-06-19T11:24:08.567Z,3.92
2017-06-19T11:26:38.377Z,6.47
2017-06-19T11:31:42.613Z,4.00
2017-06-19T11:34:13.327Z,3.55
2017-06-19T11:36:44.000Z,3.65
2017-06-19T11:39:14.918Z,3.20
2017-06-19T11:41:44.254Z,4.28
2017-06-19T11:44:16.378Z,3.87
2017-06-19T11:46:46.580Z,6.47
2017-06-19T11:49:17.030Z,4.32
2017-06-19T11:51:46.353Z,3.50
2017-06-19T11:54:16.158Z,4.15
2017-06-19T11:56:45.929Z,3.90
2017-06-19T11:59:14.663Z,3.75
2017-06-19T12:01:44.213Z,4.80
2017-06-19T12:04:16.006Z,4.80
2017-06-19T12:09:18.736Z,3.62
2017-06-19T12:11:47.426Z,3.35
2017-06-19T12:14:16.243Z,4.20
2017-06-19T12:16:46.576Z,4.30
2017-06-19T12:19:14.416Z,3.72
2017-06-19T12:21:44.069Z,3.28
2017-06-19T12:26:45.211Z,3.55
2017-06-19T12:29:14.234Z,4.45
2017-06-19T12:34:19.019Z,5.00
2017-06-19T12:36:47.571Z,5.30
2017-06-19T12:39:16.040Z,3.60
2017-06-19T12:41:44.574Z,4.53
2017-06-19T12:44:13.279Z,3.85
2017-06-19T12:46:42.811Z,4.32
2017-06-19T12:51:52.956Z,4.10
2017-06-19T12:54:23.094Z,4.10
2017-06-19T12:56:53.074Z,3.65
2017-06-19T12:59:22.397Z,6.62
2017-06-19T13:04:24.018Z,4.12
2017-06-19T13:06:53.204Z,4.55
2017-06-19T13:09:21.043Z,3.65
2017-06-19T13:11:49.746Z,4.53
2017-06-19T13:14:18.495Z,4.32
2017-06-19T13:16:47.914Z,3.50
2017-06-19T13:21:50.621Z,3.60
2017-06-19T13:24:19.576Z,3.90
2017-06-19T13:26:48.575Z,4.70
2017-06-19T13:29:19.293Z,3.42
2017-06-19T13:31:48.897Z,3.65
2017-06-19T13:34:18.114Z,8.80
2017-06-19T13:36:47.819Z,4.93
2017-06-19T13:39:18.547Z,3.85
2017-06-19T13:41:47.726Z,4.18
2017-06-19T13:44:17.597Z,4.43
2017-06-19T13:46:51.265Z,3.40
2017-06-19T13:49:25.078Z,3.60
2017-06-19T13:51:56.446Z,5.53
2017-06-19T13:54:30.104Z,4.30
2017-06-19T13:56:57.952Z,3.00
2017-06-19T13:59:25.758Z,3.92
2017-06-19T14:01:58.000Z,4.40
2017-06-19T14:04:26.233Z,3.70
2017-06-19T14:07:02.728Z,3.55
2017-06-19T14:09:32.693Z,3.15
2017-06-19T14:12:02.021Z,8.27
2017-06-19T14:14:30.845Z,3.50
2017-06-19T14:16:59.460Z,5.68
2017-06-19T14:19:28.458Z,3.05
2017-06-19T14:21:57.693Z,3.80
2017-06-19T14:24:30.682Z,3.70
2017-06-19T14:27:09.441Z,4.43
2017-06-19T14:29:37.551Z,4.15
2017-06-19T14:32:06.526Z,3.83
2017-06-19T14:34:36.012Z,3.78
2017-06-19T14:37:07.625Z,3.67
2017-06-19T14:39:36.556Z,3.15
2017-06-19T14:42:12.855Z,2.97
2017-06-19T14:44:40.791Z,2.80
2017-06-19T14:47:09.292Z,2.97
2017-06-19T14:49:37.727Z,3.90
2017-06-19T14:52:06.470Z,4.68
2017-06-19T14:54:35.583Z,2.65
2017-06-19T14:57:05.723Z,4.03
2017-06-19T14:59:34.767Z,3.58
2017-06-19T15:02:03.495Z,2.80
2017-06-19T15:04:33.877Z,3.53
2017-06-19T15:07:05.267Z,4.35
2017-06-19T15:09:36.550Z,4.25
2017-06-19T15:12:04.436Z,4.87
2017-06-19T15:14:34.695Z,3.37
2017-06-19T15:17:02.555Z,2.90
2017-06-19T15:19:31.704Z,4.50
2017-06-19T15:22:08.375Z,3.53
2017-06-19T15:24:45.965Z,3.65
2017-06-19T15:27:16.668Z,4.60
2017-06-19T15:29:48.056Z,4.50
2017-06-19T15:32:18.113Z,7.00
2017-06-19T15:34:48.111Z,3.20
2017-06-19T15:37:22.913Z,3.97
2017-06-19T15:39:52.345Z,3.53
2017-06-19T15:42:25.790Z,5.03
2017-06-19T15:44:55.325Z,4.18
2017-06-19T15:47:24.083Z,3.35
2017-06-19T15:49:52.771Z,6.60
2017-06-19T15:52:22.655Z,3.15
2017-06-19T15:54:52.175Z,3.00
2017-06-19T15:57:22.140Z,5.55
2017-06-19T16:02:27.863Z,3.90
2017-06-19T16:04:58.273Z,3.30
2017-06-19T16:07:31.068Z,4.32
2017-06-19T16:10:01.988Z,3.65
2017-06-19T16:15:15.134Z,2.97
2017-06-19T16:17:49.133Z,3.08
2017-06-19T16:20:17.609Z,3.22
2017-06-19T16:22:48.853Z,2.80
2017-06-19T16:25:27.379Z,3.87
2017-06-19T16:27:57.695Z,3.45
2017-06-19T16:30:30.175Z,3.45
2017-06-19T16:33:08.068Z,3.58
2017-06-19T16:35:44.519Z,4.10
2017-06-19T16:38:19.502Z,4.62
2017-06-19T16:40:54.892Z,5.55
2017-06-19T16:43:30.234Z,4.53
2017-06-19T16:46:03.118Z,5.65
2017-06-19T16:48:35.791Z,3.87
2017-06-19T16:51:04.223Z,5.57
2017-06-19T16:53:36.539Z,4.32
2017-06-19T16:56:07.065Z,7.80
2017-06-19T16:58:37.073Z,4.53
2017-06-19T17:01:08.634Z,5.45
2017-06-19T17:03:41.680Z,6.70
2017-06-19T17:06:11.220Z,5.40
2017-06-19T17:08:39.045Z,5.43
2017-06-19T17:11:08.783Z,5.22
2017-06-19T17:13:40.731Z,5.78
2017-06-19T17:16:10.350Z,5.22
2017-06-19T17:18:43.177Z,6.32
2017-06-19T17:21:14.543Z,4.90
2017-06-19T17:23:45.109Z,6.43
2017-06-19T17:26:14.513Z,5.20
2017-06-19T17:28:43.805Z,5.37
2017-06-19T17:31:13.263Z,6.35
2017-06-19T17:33:42.851Z,4.70
2017-06-19T17:36:13.499Z,6.12
2017-06-19T17:38:43.138Z,4.75
2017-06-19T17:41:12.341Z,4.68
2017-06-19T17:43:40.876Z,5.30
2017-06-19T17:46:09.141Z,4.37
2017-06-19T17:48:37.681Z,4.10
2017-06-19T17:51:06.431Z,4.93
2017-06-19T17:53:42.772Z,4.07
2017-06-19T17:56:12.479Z,4.45
2017-06-19T17:58:40.399Z,4.80
2017-06-19T18:01:09.013Z,4.40
2017-06-19T18:03:36.854Z,5.15
2017-06-19T18:06:04.777Z,6.40
2017-06-19T18:08:34.091Z,5.90
2017-06-19T18:11:06.870Z,6.10
2017-06-19T18:13:37.090Z,4.97
2017-06-19T18:16:07.081Z,5.03
2017-06-19T18:18:34.939Z,6.95
2017-06-19T18:21:02.741Z,5.68
2017-06-19T18:23:33.565Z,6.40
2017-06-19T18:26:02.653Z,5.32
2017-06-19T18:28:32.481Z,5.78
2017-06-19T18:31:00.322Z,5.20
2017-06-19T18:33:28.100Z,5.18
2017-06-19T18:35:56.712Z,5.93
2017-06-19T18:38:24.947Z,7.50
2017-06-19T18:40:52.730Z,5.95
2017-06-19T18:43:23.228Z,5.28
2017-06-19T18:45:51.015Z,5.28
2017-06-19T18:48:19.897Z,6.82
2017-06-19T18:50:47.672Z,5.40
2017-06-19T18:53:16.339Z,8.10
2017-06-19T18:55:44.248Z,6.53
2017-06-19T18:58:12.032Z,5.75
2017-06-19T19:00:39.904Z,6.05
2017-06-19T19:03:07.738Z,6.18
2017-06-19T19:05:36.632Z,9.65
2017-06-19T19:08:04.440Z,5.72
2017-06-19T19:10:33.133Z,6.87
2017-06-19T19:13:01.763Z,6.07
2017-06-19T19:15:29.577Z,6.37
2017-06-19T19:18:01.593Z,6.15
2017-06-19T19:20:31.434Z,6.22
2017-06-19T19:25:31.946Z,6.97
2017-06-19T19:28:00.027Z,7.40
2017-06-19T19:33:00.020Z,6.87
2017-06-19T19:35:28.338Z,6.25
2017-06-19T19:37:56.960Z,6.30
2017-06-19T19:40:24.814Z,8.85
2017-06-19T19:42:52.825Z,6.00
2017-06-19T19:45:20.648Z,6.95
2017-06-19T19:47:48.472Z,6.68
2017-06-19T19:50:17.077Z,6.47
2017-06-19T19:52:45.636Z,6.55
2017-06-19T19:55:13.478Z,8.43
2017-06-19T19:57:41.296Z,6.18
2017-06-19T20:00:09.092Z,7.05
2017-06-19T20:02:40.115Z,6.85
2017-06-19T20:05:07.915Z,8.05
2017-06-19T20:07:35.762Z,6.53
2017-06-19T20:10:03.529Z,7.57
2017-06-19T20:12:31.344Z,9.35
2017-06-19T20:14:59.125Z,5.90
2017-06-19T20:17:26.878Z,8.75
2017-06-19T20:19:54.658Z,5.75
2017-06-19T20:22:22.420Z,7.37
2017-06-19T20:24:50.221Z,6.18
2017-06-19T20:27:18.048Z,6.75
2017-06-19T20:29:45.778Z,7.78
2017-06-19T20:32:13.558Z,7.28
2017-06-19T20:34:41.326Z,6.30
2017-06-19T20:37:09.106Z,6.75
2017-06-19T20:39:36.882Z,7.30
2017-06-19T20:42:04.628Z,6.28
2017-06-19T20:44:32.391Z,6.90
2017-06-19T20:47:00.132Z,6.68
2017-06-19T20:49:27.917Z,6.53
2017-06-19T20:51:55.664Z,6.72
2017-06-19T20:54:23.424Z,7.22
2017-06-19T20:56:51.233Z,6.68
2017-06-19T20:59:19.907Z,6.47
2017-06-19T21:01:47.737Z,6.30
2017-06-19T21:04:15.504Z,7.05
2017-06-19T21:06:43.266Z,6.40
2017-06-19T21:09:11.044Z,7.20
2017-06-19T21:11:38.804Z,6.62
2017-06-19T21:14:06.620Z,6.55
2017-06-19T21:16:34.558Z,8.43
2017-06-19T21:19:03.087Z,9.85
2017-06-19T21:21:30.891Z,8.32
2017-06-19T21:23:59.396Z,7.75
2017-06-19T21:26:27.171Z,7.87
2017-06-19T21:28:55.524Z,9.05
2017-06-19T21:31:23.376Z,7.43
2017-06-19T21:33:51.183Z,7.40
2017-06-19T21:36:18.966Z,8.80
2017-06-19T21:38:46.767Z,9.77
2017-06-19T21:41:15.370Z,7.57
2017-06-19T21:43:43.131Z,7.30
2017-06-19T21:46:10.964Z,6.68
2017-06-19T21:48:40.744Z,6.93
2017-06-19T21:51:08.537Z,7.90
2017-06-19T21:53:37.068Z,6.93
2017-06-19T21:56:04.853Z,7.07
2017-06-19T21:58:32.646Z,8.23
2017-06-19T22:01:01.149Z,7.12
2017-06-19T22:03:28.920Z,7.72
2017-06-19T22:05:56.652Z,7.78
2017-06-19T22:08:25.171Z,8.18
2017-06-19T22:10:52.962Z,7.47
2017-06-19T22:13:20.730Z,6.95
2017-06-19T22:15:48.523Z,7.78
2017-06-19T22:18:17.032Z,6.50
2017-06-19T22:20:50.425Z,6.28
2017-06-19T22:23:18.183Z,6.03
2017-06-19T22:25:45.928Z,6.57
2017-06-19T22:28:13.706Z,6.47
2017-06-19T22:30:41.461Z,7.50
2017-06-19T22:33:09.245Z,7.45
2017-06-19T22:35:37.005Z,7.05
2017-06-19T22:38:04.768Z,5.85
2017-06-19T22:40:32.559Z,6.00
2017-06-19T22:43:00.320Z,6.55
2017-06-19T22:45:28.108Z,7.12
2017-06-19T22:47:56.614Z,7.00
2017-06-19T22:50:24.395Z,9.00
2017-06-19T22:52:52.169Z,7.45
2017-06-19T22:55:19.904Z,8.15
2017-06-19T22:57:47.689Z,5.50
2017-06-19T23:00:15.433Z,6.90
2017-06-19T23:02:43.180Z,6.95
2017-06-19T23:05:10.975Z,6.53
2017-06-19T23:07:38.724Z,10.00
2017-06-19T23:10:06.534Z,9.60
2017-06-19T23:12:35.043Z,6.15
2017-06-19T23:15:02.773Z,5.90
2017-06-19T23:17:31.321Z,6.87
2017-06-19T23:19:59.062Z,6.85
2017-06-19T23:22:26.861Z,5.70
2017-06-19T23:24:54.609Z,6.20
2017-06-19T23:27:22.363Z,7.75
2017-06-19T23:29:50.139Z,10.80
2017-06-19T23:32:17.899Z,6.05
2017-06-19T23:34:45.710Z,6.82
2017-06-19T23:37:13.453Z,5.90
2017-06-19T23:39:41.211Z,6.32
2017-06-19T23:42:09.743Z,6.00
2017-06-19T23:44:37.482Z,6.30
2017-06-19T23:47:05.272Z,8.98
2017-06-19T23:49:33.010Z,7.70
2017-06-19T23:52:00.746Z,6.70
2017-06-19T23:54:28.508Z,8.35
2017-06-19T23:56:56.238Z,7.32
2017-06-19T23:59:24.028Z,8.07
